Low Head, Tasmania

9:04 AM AEDT on February 11, 2016 (GMT +1100)
George Town Central | | Change Station
CLOSE
Current Station
Personal Weather Station
Location: George Town, TASMANIA
Elevation: 23 ft
Nearby Weather Stations

Elev 23 ft 41.10 °S, 146.82 °E | Updated 7 seconds ago

Clear
Clear
67.3 °F
Feels Like 67.3 °F
N
6.0
Wind Variable Wind from SE
Gusts 9.8 mph

Today
High -- | Low -- °F
--% Chance of Precip.
Yesterday
High -- | Low -- °F
Precip. -- in
Pressure 29.98 in
Visibility 6.2 miles
Clouds
Dew Point 54 °F
Humidity 63%
Rainfall 0.00 in
Snow Depth Not available.
6:30 AM 8:22 PM
Waxing Crescent, 7% visible
METAR YMLT 102130Z AUTO 15009KT 9999 // NCD 17/09 Q1015
Pressure 29.98 in
Visibility 6.2 miles
Clouds
Dew Point 54 °F
Humidity 63%
Rainfall 0.00 in
Snow Depth Not available.
6:30 AM 8:22 PM
Waxing Crescent, 7% visible
METAR YMLT 102130Z AUTO 15009KT 9999 // NCD 17/09 Q1015

10-Day Weather Forecast

Almanac

Astronomy

Feb. 11, 2016 Rise Set
Actual Time
Civil Twilight
Nautical Twilight
Astronomical Twilight
Moon
Length of Visible Light
Length of Day
Tomorrow will be .
, % of the Moon is Illuminated

Today's Extremes

Country Highs Country Lows

Community

WunderPhotos

Upload Photos

1,891,959 photos uploaded!

WunderBlog® & News

Nearby

Air Quality

  Air Quality AQ Index Pollutant
Not available.

Snow Depth

Station Depth Elevation

Earthquake Activity

City Distance Mag. Time & Date
Minimum magnitude displayed is 2.5.

Coastal Water Temperatures

Place Temperature

Stations

Nearby Weather Stations

Station Location Temp. Windchill Dew Point Humidity Wind Precip. Elev Updated Type